sensor_id;sensor_type;location;lat;lon;timestamp;temperature;humidity
20670;DHT22;10494;50.868;4.180;2023-09-19T00:00:46;15.70;99.90
20670;DHT22;10494;50.868;4.180;2023-09-19T00:03:15;15.70;99.90
20670;DHT22;10494;50.868;4.180;2023-09-19T00:05:40;15.70;99.90
20670;DHT22;10494;50.868;4.180;2023-09-19T00:08:09;15.60;99.90
20670;DHT22;10494;50.868;4.180;2023-09-19T00:10:35;15.70;99.90
20670;DHT22;10494;50.868;4.180;2023-09-19T00:13:02;15.70;99.90
20670;DHT22;10494;50.868;4.180;2023-09-19T00:15:37;15.70;99.90
20670;DHT22;10494;50.868;4.180;2023-09-19T00:18:04;15.70;99.90
20670;DHT22;10494;50.868;4.180;2023-09-19T00:20:32;15.60;99.90
20670;DHT22;10494;50.868;4.180;2023-09-19T00:23:00;15.60;99.90
20670;DHT22;10494;50.868;4.180;2023-09-19T00:25:28;15.60;99.90
20670;DHT22;10494;50.868;4.180;2023-09-19T00:27:54;15.60;99.90
20670;DHT22;10494;50.868;4.180;2023-09-19T00:30:21;15.60;99.90
20670;DHT22;10494;50.868;4.180;2023-09-19T00:32:47;15.60;99.90
20670;DHT22;10494;50.868;4.180;2023-09-19T00:35:16;15.60;99.90
20670;DHT22;10494;50.868;4.180;2023-09-19T00:37:42;15.60;99.90
20670;DHT22;10494;50.868;4.180;2023-09-19T00:40:09;15.60;99.90
20670;DHT22;10494;50.868;4.180;2023-09-19T00:42:39;15.60;99.90
20670;DHT22;10494;50.868;4.180;2023-09-19T00:45:07;15.60;99.90
20670;DHT22;10494;50.868;4.180;2023-09-19T00:47:35;15.50;99.90
20670;DHT22;10494;50.868;4.180;2023-09-19T00:50:01;15.50;99.90
20670;DHT22;10494;50.868;4.180;2023-09-19T00:52:28;15.50;99.90
20670;DHT22;10494;50.868;4.180;2023-09-19T00:54:54;15.50;99.90
20670;DHT22;10494;50.868;4.180;2023-09-19T00:57:20;15.50;99.90
20670;DHT22;10494;50.868;4.180;2023-09-19T00:59:49;15.50;99.90
20670;DHT22;10494;50.868;4.180;2023-09-19T01:02:16;15.50;99.90
20670;DHT22;10494;50.868;4.180;2023-09-19T01:04:42;15.40;99.90
20670;DHT22;10494;50.868;4.180;2023-09-19T01:07:08;15.40;99.90
20670;DHT22;10494;50.868;4.180;2023-09-19T01:09:35;15.50;99.90
20670;DHT22;10494;50.868;4.180;2023-09-19T01:12:03;15.40;99.90
20670;DHT22;10494;50.868;4.180;2023-09-19T01:14:54;15.40;99.90
20670;DHT22;10494;50.868;4.180;2023-09-19T01:17:34;15.40;99.90
20670;DHT22;10494;50.868;4.180;2023-09-19T01:20:07;15.30;99.90
20670;DHT22;10494;50.868;4.180;2023-09-19T01:29:18;15.30;99.90
20670;DHT22;10494;50.868;4.180;2023-09-19T01:31:57;15.30;99.90
20670;DHT22;10494;50.868;4.180;2023-09-19T01:34:26;15.30;99.90
20670;DHT22;10494;50.868;4.180;2023-09-19T01:36:52;15.30;99.90
20670;DHT22;10494;50.868;4.180;2023-09-19T01:39:18;15.30;99.90
20670;DHT22;10494;50.868;4.180;2023-09-19T01:42:00;15.30;99.90
20670;DHT22;10494;50.868;4.180;2023-09-19T01:47:07;15.30;99.90
20670;DHT22;10494;50.868;4.180;2023-09-19T01:49:50;15.20;99.90
20670;DHT22;10494;50.868;4.180;2023-09-19T01:52:17;15.30;99.90
20670;DHT22;10494;50.868;4.180;2023-09-19T01:54:52;15.20;99.90
20670;DHT22;10494;50.868;4.180;2023-09-19T01:57:29;15.20;99.90
20670;DHT22;10494;50.868;4.180;2023-09-19T02:00:06;15.20;99.90
20670;DHT22;10494;50.868;4.180;2023-09-19T02:02:37;15.20;99.90
20670;DHT22;10494;50.868;4.180;2023-09-19T02:05:04;15.30;99.90
20670;DHT22;10494;50.868;4.180;2023-09-19T02:07:30;15.30;99.90
20670;DHT22;10494;50.868;4.180;2023-09-19T02:09:59;15.30;99.90
20670;DHT22;10494;50.868;4.180;2023-09-19T02:12:30;15.40;99.90
20670;DHT22;10494;50.868;4.180;2023-09-19T02:14:56;15.40;99.90
20670;DHT22;10494;50.868;4.180;2023-09-19T02:17:23;15.40;99.90
20670;DHT22;10494;50.868;4.180;2023-09-19T02:19:52;15.40;99.90
20670;DHT22;10494;50.868;4.180;2023-09-19T02:22:18;15.40;99.90
20670;DHT22;10494;50.868;4.180;2023-09-19T02:24:43;15.50;99.90
20670;DHT22;10494;50.868;4.180;2023-09-19T02:27:09;15.40;99.90
20670;DHT22;10494;50.868;4.180;2023-09-19T02:29:38;15.40;99.90
20670;DHT22;10494;50.868;4.180;2023-09-19T02:32:03;15.40;99.90
20670;DHT22;10494;50.868;4.180;2023-09-19T02:34:29;15.40;99.90
20670;DHT22;10494;50.868;4.180;2023-09-19T02:36:55;15.50;99.90
20670;DHT22;10494;50.868;4.180;2023-09-19T02:39:21;15.50;99.90
20670;DHT22;10494;50.868;4.180;2023-09-19T02:41:49;15.40;99.90
20670;DHT22;10494;50.868;4.180;2023-09-19T02:44:14;15.40;99.90
20670;DHT22;10494;50.868;4.180;2023-09-19T02:46:40;15.30;99.90
20670;DHT22;10494;50.868;4.180;2023-09-19T02:49:06;15.40;99.90
20670;DHT22;10494;50.868;4.180;2023-09-19T02:51:32;15.30;99.90
20670;DHT22;10494;50.868;4.180;2023-09-19T02:53:59;15.30;99.90
20670;DHT22;10494;50.868;4.180;2023-09-19T02:56:25;15.30;99.90
20670;DHT22;10494;50.868;4.180;2023-09-19T02:58:51;15.30;99.90
20670;DHT22;10494;50.868;4.180;2023-09-19T03:01:17;15.30;99.90
20670;DHT22;10494;50.868;4.180;2023-09-19T03:03:44;15.30;99.90
20670;DHT22;10494;50.868;4.180;2023-09-19T03:06:11;15.30;99.90
20670;DHT22;10494;50.868;4.180;2023-09-19T03:08:38;15.40;99.90
20670;DHT22;10494;50.868;4.180;2023-09-19T03:11:05;15.40;99.90
20670;DHT22;10494;50.868;4.180;2023-09-19T03:13:32;15.30;99.90
20670;DHT22;10494;50.868;4.180;2023-09-19T03:15:58;15.20;99.90
20670;DHT22;10494;50.868;4.180;2023-09-19T03:18:24;15.20;99.90
20670;DHT22;10494;50.868;4.180;2023-09-19T03:20:55;15.00;99.90
20670;DHT22;10494;50.868;4.180;2023-09-19T03:23:21;15.00;99.90
20670;DHT22;10494;50.868;4.180;2023-09-19T03:25:47;15.00;99.90
20670;DHT22;10494;50.868;4.180;2023-09-19T03:28:14;15.10;99.90
20670;DHT22;10494;50.868;4.180;2023-09-19T03:30:41;15.10;99.90
20670;DHT22;10494;50.868;4.180;2023-09-19T03:33:07;15.10;99.90
20670;DHT22;10494;50.868;4.180;2023-09-19T03:35:33;15.20;99.90
20670;DHT22;10494;50.868;4.180;2023-09-19T03:38:00;15.20;99.90
20670;DHT22;10494;50.868;4.180;2023-09-19T03:40:25;15.20;99.90
20670;DHT22;10494;50.868;4.180;2023-09-19T03:42:51;15.20;99.90
20670;DHT22;10494;50.868;4.180;2023-09-19T03:45:17;15.20;99.90
20670;DHT22;10494;50.868;4.180;2023-09-19T03:47:43;15.10;99.90
20670;DHT22;10494;50.868;4.180;2023-09-19T03:50:12;15.20;99.90
20670;DHT22;10494;50.868;4.180;2023-09-19T03:52:40;15.10;99.90
20670;DHT22;10494;50.868;4.180;2023-09-19T03:55:06;15.20;99.90
20670;DHT22;10494;50.868;4.180;2023-09-19T03:57:32;15.10;99.90
20670;DHT22;10494;50.868;4.180;2023-09-19T03:59:58;15.00;99.90
20670;DHT22;10494;50.868;4.180;2023-09-19T04:02:23;15.00;99.90
20670;DHT22;10494;50.868;4.180;2023-09-19T04:04:50;15.00;99.90
20670;DHT22;10494;50.868;4.180;2023-09-19T04:07:16;15.00;99.90
20670;DHT22;10494;50.868;4.180;2023-09-19T04:09:42;14.90;99.90
20670;DHT22;10494;50.868;4.180;2023-09-19T04:12:08;14.80;99.90
20670;DHT22;10494;50.868;4.180;2023-09-19T04:14:36;14.70;99.90
20670;DHT22;10494;50.868;4.180;2023-09-19T04:17:02;14.60;99.90
20670;DHT22;10494;50.868;4.180;2023-09-19T04:19:28;14.60;99.90
20670;DHT22;10494;50.868;4.180;2023-09-19T04:21:54;14.60;99.90
20670;DHT22;10494;50.868;4.180;2023-09-19T04:24:20;14.60;99.90
20670;DHT22;10494;50.868;4.180;2023-09-19T04:26:45;14.60;99.90
20670;DHT22;10494;50.868;4.180;2023-09-19T04:29:11;14.50;99.90
20670;DHT22;10494;50.868;4.180;2023-09-19T04:31:39;14.50;99.90
20670;DHT22;10494;50.868;4.180;2023-09-19T04:34:06;14.40;99.90
20670;DHT22;10494;50.868;4.180;2023-09-19T04:36:32;14.40;99.90
20670;DHT22;10494;50.868;4.180;2023-09-19T04:38:57;14.50;99.90
20670;DHT22;10494;50.868;4.180;2023-09-19T04:41:23;14.50;99.90
20670;DHT22;10494;50.868;4.180;2023-09-19T04:43:50;14.50;99.90
20670;DHT22;10494;50.868;4.180;2023-09-19T04:46:16;14.30;99.90
20670;DHT22;10494;50.868;4.180;2023-09-19T04:48:43;14.40;99.90
20670;DHT22;10494;50.868;4.180;2023-09-19T04:51:08;14.40;99.90
20670;DHT22;10494;50.868;4.180;2023-09-19T04:53:34;14.40;99.90
20670;DHT22;10494;50.868;4.180;2023-09-19T04:55:59;14.40;99.90
20670;DHT22;10494;50.868;4.180;2023-09-19T04:58:25;14.40;99.90
20670;DHT22;10494;50.868;4.180;2023-09-19T05:00:51;14.40;99.90
20670;DHT22;10494;50.868;4.180;2023-09-19T05:03:17;14.40;99.90
20670;DHT22;10494;50.868;4.180;2023-09-19T05:05:43;14.30;99.90
20670;DHT22;10494;50.868;4.180;2023-09-19T05:08:08;14.40;99.90
20670;DHT22;10494;50.868;4.180;2023-09-19T05:10:35;14.40;99.90
20670;DHT22;10494;50.868;4.180;2023-09-19T05:13:04;14.50;99.90
20670;DHT22;10494;50.868;4.180;2023-09-19T05:15:30;14.50;99.90
20670;DHT22;10494;50.868;4.180;2023-09-19T05:17:56;14.60;99.90
20670;DHT22;10494;50.868;4.180;2023-09-19T05:20:22;14.60;99.90
20670;DHT22;10494;50.868;4.180;2023-09-19T05:23:06;14.60;99.90
20670;DHT22;10494;50.868;4.180;2023-09-19T05:25:37;14.70;99.90
20670;DHT22;10494;50.868;4.180;2023-09-19T05:28:05;14.60;99.90
20670;DHT22;10494;50.868;4.180;2023-09-19T05:30:35;14.60;99.90
20670;DHT22;10494;50.868;4.180;2023-09-19T05:33:08;14.70;99.90
20670;DHT22;10494;50.868;4.180;2023-09-19T05:35:35;14.60;99.90
20670;DHT22;10494;50.868;4.180;2023-09-19T05:38:05;14.60;99.90
20670;DHT22;10494;50.868;4.180;2023-09-19T05:40:34;14.60;99.90
20670;DHT22;10494;50.868;4.180;2023-09-19T05:43:00;14.60;99.90
20670;DHT22;10494;50.868;4.180;2023-09-19T05:45:26;14.50;99.90
20670;DHT22;10494;50.868;4.180;2023-09-19T05:47:52;14.60;99.90
20670;DHT22;10494;50.868;4.180;2023-09-19T05:50:21;14.50;99.90
20670;DHT22;10494;50.868;4.180;2023-09-19T05:52:54;14.50;99.90
20670;DHT22;10494;50.868;4.180;2023-09-19T05:55:21;14.50;99.90
20670;DHT22;10494;50.868;4.180;2023-09-19T05:57:53;14.50;99.90
20670;DHT22;10494;50.868;4.180;2023-09-19T06:00:23;14.50;99.90
20670;DHT22;10494;50.868;4.180;2023-09-19T06:02:59;14.70;99.90
20670;DHT22;10494;50.868;4.180;2023-09-19T06:05:25;14.60;99.90
20670;DHT22;10494;50.868;4.180;2023-09-19T06:07:55;14.80;99.90
20670;DHT22;10494;50.868;4.180;2023-09-19T06:10:25;14.80;99.90
20670;DHT22;10494;50.868;4.180;2023-09-19T06:12:53;14.70;99.90
20670;DHT22;10494;50.868;4.180;2023-09-19T06:15:20;14.70;99.90
20670;DHT22;10494;50.868;4.180;2023-09-19T06:17:54;14.70;99.90
20670;DHT22;10494;50.868;4.180;2023-09-19T06:20:25;14.80;99.90
20670;DHT22;10494;50.868;4.180;2023-09-19T06:22:53;14.80;99.90
20670;DHT22;10494;50.868;4.180;2023-09-19T06:25:19;14.90;99.90
20670;DHT22;10494;50.868;4.180;2023-09-19T06:27:49;15.00;99.90
20670;DHT22;10494;50.868;4.180;2023-09-19T06:30:18;15.20;99.90
20670;DHT22;10494;50.868;4.180;2023-09-19T06:32:43;15.30;99.90
20670;DHT22;10494;50.868;4.180;2023-09-19T06:35:13;15.20;99.90
20670;DHT22;10494;50.868;4.180;2023-09-19T06:37:40;15.30;99.90
20670;DHT22;10494;50.868;4.180;2023-09-19T06:40:12;15.30;99.90
20670;DHT22;10494;50.868;4.180;2023-09-19T06:43:06;15.40;99.90
20670;DHT22;10494;50.868;4.180;2023-09-19T06:45:32;15.50;99.90
20670;DHT22;10494;50.868;4.180;2023-09-19T06:47:58;15.50;99.90
20670;DHT22;10494;50.868;4.180;2023-09-19T06:50:26;15.40;99.90
20670;DHT22;10494;50.868;4.180;2023-09-19T06:52:54;15.40;99.90
20670;DHT22;10494;50.868;4.180;2023-09-19T06:55:21;15.50;99.90
20670;DHT22;10494;50.868;4.180;2023-09-19T06:57:50;15.50;99.90
20670;DHT22;10494;50.868;4.180;2023-09-19T07:00:16;15.60;99.90
20670;DHT22;10494;50.868;4.180;2023-09-19T07:03:06;15.60;99.90
20670;DHT22;10494;50.868;4.180;2023-09-19T07:05:37;15.60;99.90
20670;DHT22;10494;50.868;4.180;2023-09-19T07:08:08;15.80;99.90
20670;DHT22;10494;50.868;4.180;2023-09-19T07:10:39;15.80;99.90
20670;DHT22;10494;50.868;4.180;2023-09-19T07:13:07;16.00;99.90
20670;DHT22;10494;50.868;4.180;2023-09-19T07:15:37;16.10;99.90
20670;DHT22;10494;50.868;4.180;2023-09-19T07:18:05;16.20;99.90
20670;DHT22;10494;50.868;4.180;2023-09-19T07:20:32;16.30;99.90
20670;DHT22;10494;50.868;4.180;2023-09-19T07:22:58;16.60;99.90
20670;DHT22;10494;50.868;4.180;2023-09-19T07:25:27;16.90;99.90
20670;DHT22;10494;50.868;4.180;2023-09-19T07:27:55;17.20;99.90
20670;DHT22;10494;50.868;4.180;2023-09-19T07:30:21;17.50;99.90
20670;DHT22;10494;50.868;4.180;2023-09-19T07:32:47;17.60;99.90
20670;DHT22;10494;50.868;4.180;2023-09-19T07:35:13;17.80;99.90
20670;DHT22;10494;50.868;4.180;2023-09-19T07:37:40;17.90;99.90
20670;DHT22;10494;50.868;4.180;2023-09-19T07:40:06;18.10;99.90
20670;DHT22;10494;50.868;4.180;2023-09-19T07:42:36;18.30;99.90
20670;DHT22;10494;50.868;4.180;2023-09-19T07:45:04;18.70;99.90
20670;DHT22;10494;50.868;4.180;2023-09-19T07:47:30;18.90;99.90
20670;DHT22;10494;50.868;4.180;2023-09-19T07:49:58;19.00;99.90
20670;DHT22;10494;50.868;4.180;2023-09-19T07:52:24;19.10;99.90
20670;DHT22;10494;50.868;4.180;2023-09-19T07:54:50;19.20;99.90
20670;DHT22;10494;50.868;4.180;2023-09-19T07:57:16;19.20;99.90
20670;DHT22;10494;50.868;4.180;2023-09-19T07:59:41;19.50;99.90
20670;DHT22;10494;50.868;4.180;2023-09-19T08:02:08;19.90;99.90
20670;DHT22;10494;50.868;4.180;2023-09-19T08:04:35;19.90;99.90
20670;DHT22;10494;50.868;4.180;2023-09-19T08:07:01;20.30;99.90
20670;DHT22;10494;50.868;4.180;2023-09-19T08:09:29;20.70;99.90
20670;DHT22;10494;50.868;4.180;2023-09-19T08:11:59;20.70;99.90
20670;DHT22;10494;50.868;4.180;2023-09-19T08:14:28;20.80;99.90
20670;DHT22;10494;50.868;4.180;2023-09-19T08:16:57;20.70;99.90
20670;DHT22;10494;50.868;4.180;2023-09-19T08:19:24;20.60;99.90
20670;DHT22;10494;50.868;4.180;2023-09-19T08:21:57;20.80;99.90
20670;DHT22;10494;50.868;4.180;2023-09-19T08:24:27;21.10;99.90
20670;DHT22;10494;50.868;4.180;2023-09-19T08:26:57;21.50;99.90
20670;DHT22;10494;50.868;4.180;2023-09-19T08:29:26;21.60;99.90
20670;DHT22;10494;50.868;4.180;2023-09-19T08:31:59;21.70;99.90
20670;DHT22;10494;50.868;4.180;2023-09-19T08:34:25;21.80;99.90
20670;DHT22;10494;50.868;4.180;2023-09-19T08:36:52;21.80;99.90
20670;DHT22;10494;50.868;4.180;2023-09-19T08:39:24;22.00;99.90
20670;DHT22;10494;50.868;4.180;2023-09-19T08:41:58;22.10;99.90
20670;DHT22;10494;50.868;4.180;2023-09-19T08:44:25;22.40;99.90
20670;DHT22;10494;50.868;4.180;2023-09-19T08:46:54;22.50;99.90
20670;DHT22;10494;50.868;4.180;2023-09-19T08:49:27;22.40;99.90
20670;DHT22;10494;50.868;4.180;2023-09-19T08:52:10;21.90;99.90
20670;DHT22;10494;50.868;4.180;2023-09-19T08:54:40;22.00;99.90
20670;DHT22;10494;50.868;4.180;2023-09-19T08:57:07;22.00;99.90
20670;DHT22;10494;50.868;4.180;2023-09-19T08:59:41;21.60;99.90
20670;DHT22;10494;50.868;4.180;2023-09-19T09:02:14;21.30;99.90
20670;DHT22;10494;50.868;4.180;2023-09-19T09:04:44;21.30;99.90
20670;DHT22;10494;50.868;4.180;2023-09-19T09:07:14;21.60;99.90
20670;DHT22;10494;50.868;4.180;2023-09-19T09:09:40;21.50;99.90
20670;DHT22;10494;50.868;4.180;2023-09-19T09:12:13;21.50;99.90
20670;DHT22;10494;50.868;4.180;2023-09-19T09:14:40;21.30;99.90
20670;DHT22;10494;50.868;4.180;2023-09-19T09:17:06;21.00;99.90
20670;DHT22;10494;50.868;4.180;2023-09-19T09:19:32;21.10;99.90
20670;DHT22;10494;50.868;4.180;2023-09-19T09:22:09;21.20;99.90
20670;DHT22;10494;50.868;4.180;2023-09-19T09:24:34;20.80;99.90
20670;DHT22;10494;50.868;4.180;2023-09-19T09:27:04;20.40;99.90
20670;DHT22;10494;50.868;4.180;2023-09-19T09:34:58;20.50;99.90
20670;DHT22;10494;50.868;4.180;2023-09-19T09:37:26;20.50;99.90
20670;DHT22;10494;50.868;4.180;2023-09-19T09:40:00;20.50;99.90
20670;DHT22;10494;50.868;4.180;2023-09-19T09:42:45;20.10;99.90
20670;DHT22;10494;50.868;4.180;2023-09-19T09:45:22;19.80;99.90
20670;DHT22;10494;50.868;4.180;2023-09-19T09:48:14;19.80;99.90
20670;DHT22;10494;50.868;4.180;2023-09-19T09:50:47;19.70;99.90
20670;DHT22;10494;50.868;4.180;2023-09-19T09:53:29;19.60;99.90
20670;DHT22;10494;50.868;4.180;2023-09-19T09:56:05;19.80;99.90
20670;DHT22;10494;50.868;4.180;2023-09-19T09:58:40;20.00;99.90
20670;DHT22;10494;50.868;4.180;2023-09-19T10:01:14;19.90;99.90
20670;DHT22;10494;50.868;4.180;2023-09-19T10:03:42;20.00;99.90
20670;DHT22;10494;50.868;4.180;2023-09-19T10:06:16;20.10;99.90
20670;DHT22;10494;50.868;4.180;2023-09-19T10:09:06;20.70;99.90
20670;DHT22;10494;50.868;4.180;2023-09-19T10:12:05;20.80;99.90
20670;DHT22;10494;50.868;4.180;2023-09-19T10:14:35;21.10;99.90
20670;DHT22;10494;50.868;4.180;2023-09-19T10:17:05;21.40;99.90
20670;DHT22;10494;50.868;4.180;2023-09-19T10:19:37;21.30;99.90
20670;DHT22;10494;50.868;4.180;2023-09-19T10:22:05;21.60;99.90
20670;DHT22;10494;50.868;4.180;2023-09-19T10:24:35;21.60;99.90
20670;DHT22;10494;50.868;4.180;2023-09-19T10:27:04;21.90;99.90
20670;DHT22;10494;50.868;4.180;2023-09-19T10:29:34;21.80;99.90
20670;DHT22;10494;50.868;4.180;2023-09-19T10:32:03;22.00;99.90
20670;DHT22;10494;50.868;4.180;2023-09-19T10:34:40;22.20;99.90
20670;DHT22;10494;50.868;4.180;2023-09-19T10:37:08;22.20;99.90
20670;DHT22;10494;50.868;4.180;2023-09-19T10:39:39;22.10;99.90
20670;DHT22;10494;50.868;4.180;2023-09-19T10:42:06;21.90;99.90
20670;DHT22;10494;50.868;4.180;2023-09-19T10:44:37;21.80;99.90
20670;DHT22;10494;50.868;4.180;2023-09-19T10:47:07;21.70;99.90
20670;DHT22;10494;50.868;4.180;2023-09-19T10:49:34;22.00;99.90
20670;DHT22;10494;50.868;4.180;2023-09-19T10:52:01;21.80;99.90
20670;DHT22;10494;50.868;4.180;2023-09-19T10:54:31;21.80;99.90
20670;DHT22;10494;50.868;4.180;2023-09-19T10:56:59;22.00;99.90
20670;DHT22;10494;50.868;4.180;2023-09-19T10:59:26;21.90;99.90
20670;DHT22;10494;50.868;4.180;2023-09-19T11:02:18;22.20;99.90
20670;DHT22;10494;50.868;4.180;2023-09-19T11:04:44;21.90;99.90
20670;DHT22;10494;50.868;4.180;2023-09-19T11:07:14;21.70;99.90
20670;DHT22;10494;50.868;4.180;2023-09-19T11:09:50;21.80;99.90
20670;DHT22;10494;50.868;4.180;2023-09-19T11:14:57;21.70;99.90
20670;DHT22;10494;50.868;4.180;2023-09-19T11:17:30;21.60;99.90
20670;DHT22;10494;50.868;4.180;2023-09-19T11:30:32;20.90;99.90
20670;DHT22;10494;50.868;4.180;2023-09-19T11:43:53;20.80;99.90
20670;DHT22;10494;50.868;4.180;2023-09-19T11:46:24;20.70;99.90
20670;DHT22;10494;50.868;4.180;2023-09-19T11:48:53;20.70;99.90
20670;DHT22;10494;50.868;4.180;2023-09-19T11:51:25;20.60;99.90
20670;DHT22;10494;50.868;4.180;2023-09-19T11:53:57;20.60;99.90
20670;DHT22;10494;50.868;4.180;2023-09-19T11:56:27;20.60;99.90
20670;DHT22;10494;50.868;4.180;2023-09-19T11:58:57;20.70;99.90
20670;DHT22;10494;50.868;4.180;2023-09-19T12:01:32;20.60;99.90
20670;DHT22;10494;50.868;4.180;2023-09-19T12:04:01;20.60;99.90
20670;DHT22;10494;50.868;4.180;2023-09-19T12:06:28;20.50;99.90
20670;DHT22;10494;50.868;4.180;2023-09-19T12:08:55;20.50;99.90
20670;DHT22;10494;50.868;4.180;2023-09-19T12:11:23;20.60;99.90
20670;DHT22;10494;50.868;4.180;2023-09-19T12:13:50;20.50;99.90
20670;DHT22;10494;50.868;4.180;2023-09-19T12:16:18;20.50;99.90
20670;DHT22;10494;50.868;4.180;2023-09-19T12:18:47;20.70;99.90
20670;DHT22;10494;50.868;4.180;2023-09-19T12:21:29;20.90;99.90
20670;DHT22;10494;50.868;4.180;2023-09-19T12:26:42;20.80;99.90
20670;DHT22;10494;50.868;4.180;2023-09-19T12:29:16;20.70;99.90
20670;DHT22;10494;50.868;4.180;2023-09-19T12:31:53;20.60;99.90
20670;DHT22;10494;50.868;4.180;2023-09-19T12:34:24;20.70;99.90
20670;DHT22;10494;50.868;4.180;2023-09-19T12:37:04;20.90;99.90
20670;DHT22;10494;50.868;4.180;2023-09-19T12:39:36;21.00;99.90
20670;DHT22;10494;50.868;4.180;2023-09-19T12:42:02;20.90;99.90
20670;DHT22;10494;50.868;4.180;2023-09-19T12:44:29;21.00;99.90
20670;DHT22;10494;50.868;4.180;2023-09-19T12:46:55;21.00;99.90
20670;DHT22;10494;50.868;4.180;2023-09-19T12:49:24;20.90;99.90
20670;DHT22;10494;50.868;4.180;2023-09-19T12:51:54;20.90;99.90
20670;DHT22;10494;50.868;4.180;2023-09-19T12:54:20;21.00;99.90
20670;DHT22;10494;50.868;4.180;2023-09-19T12:56:47;21.10;99.90
20670;DHT22;10494;50.868;4.180;2023-09-19T12:59:14;21.20;99.90
20670;DHT22;10494;50.868;4.180;2023-09-19T13:01:41;21.20;99.90
20670;DHT22;10494;50.868;4.180;2023-09-19T13:04:13;21.20;99.90
20670;DHT22;10494;50.868;4.180;2023-09-19T13:06:40;21.30;99.90
20670;DHT22;10494;50.868;4.180;2023-09-19T13:09:10;21.20;99.90
20670;DHT22;10494;50.868;4.180;2023-09-19T13:11:38;21.10;99.90
20670;DHT22;10494;50.868;4.180;2023-09-19T13:14:21;21.00;99.90
20670;DHT22;10494;50.868;4.180;2023-09-19T13:17:06;20.90;99.90
20670;DHT22;10494;50.868;4.180;2023-09-19T13:25:18;21.30;99.90
20670;DHT22;10494;50.868;4.180;2023-09-19T13:27:48;21.40;99.90
20670;DHT22;10494;50.868;4.180;2023-09-19T13:30:17;21.50;99.90
20670;DHT22;10494;50.868;4.180;2023-09-19T13:32:44;21.60;99.90
20670;DHT22;10494;50.868;4.180;2023-09-19T13:35:10;21.60;99.90
20670;DHT22;10494;50.868;4.180;2023-09-19T13:37:38;21.40;99.90
20670;DHT22;10494;50.868;4.180;2023-09-19T13:40:11;21.30;99.90
20670;DHT22;10494;50.868;4.180;2023-09-19T13:42:37;21.10;99.90
20670;DHT22;10494;50.868;4.180;2023-09-19T13:45:04;21.10;99.90
20670;DHT22;10494;50.868;4.180;2023-09-19T13:47:30;20.90;99.90
20670;DHT22;10494;50.868;4.180;2023-09-19T13:49:56;21.00;99.90
20670;DHT22;10494;50.868;4.180;2023-09-19T13:52:22;20.80;99.90
20670;DHT22;10494;50.868;4.180;2023-09-19T13:54:52;20.90;99.90
20670;DHT22;10494;50.868;4.180;2023-09-19T13:57:18;20.80;99.90
20670;DHT22;10494;50.868;4.180;2023-09-19T13:59:44;20.70;99.90
20670;DHT22;10494;50.868;4.180;2023-09-19T14:02:10;20.60;99.90
20670;DHT22;10494;50.868;4.180;2023-09-19T14:04:35;20.70;99.90
20670;DHT22;10494;50.868;4.180;2023-09-19T14:07:04;20.60;99.90
20670;DHT22;10494;50.868;4.180;2023-09-19T14:09:30;20.60;99.90
20670;DHT22;10494;50.868;4.180;2023-09-19T14:11:55;20.70;99.90
20670;DHT22;10494;50.868;4.180;2023-09-19T14:14:22;20.70;99.90
20670;DHT22;10494;50.868;4.180;2023-09-19T14:16:48;20.80;99.90
20670;DHT22;10494;50.868;4.180;2023-09-19T14:19:14;20.70;99.90
20670;DHT22;10494;50.868;4.180;2023-09-19T14:21:42;20.80;99.90
20670;DHT22;10494;50.868;4.180;2023-09-19T14:24:08;20.90;99.90
20670;DHT22;10494;50.868;4.180;2023-09-19T14:26:38;21.10;99.90
20670;DHT22;10494;50.868;4.180;2023-09-19T14:29:04;21.20;99.90
20670;DHT22;10494;50.868;4.180;2023-09-19T14:31:33;21.20;99.90
20670;DHT22;10494;50.868;4.180;2023-09-19T14:33:59;21.10;99.90
20670;DHT22;10494;50.868;4.180;2023-09-19T14:36:25;21.00;99.90
20670;DHT22;10494;50.868;4.180;2023-09-19T14:38:55;20.90;99.90
20670;DHT22;10494;50.868;4.180;2023-09-19T14:41:22;20.80;99.90
20670;DHT22;10494;50.868;4.180;2023-09-19T14:43:48;20.70;99.90
20670;DHT22;10494;50.868;4.180;2023-09-19T14:46:14;20.50;99.90
20670;DHT22;10494;50.868;4.180;2023-09-19T14:48:41;20.40;99.90
20670;DHT22;10494;50.868;4.180;2023-09-19T14:51:08;20.30;99.90
20670;DHT22;10494;50.868;4.180;2023-09-19T14:53:37;20.20;99.90
20670;DHT22;10494;50.868;4.180;2023-09-19T14:56:08;20.10;99.90
20670;DHT22;10494;50.868;4.180;2023-09-19T14:58:35;20.10;99.90
20670;DHT22;10494;50.868;4.180;2023-09-19T15:01:11;20.00;99.90
20670;DHT22;10494;50.868;4.180;2023-09-19T15:03:38;20.10;99.90
20670;DHT22;10494;50.868;4.180;2023-09-19T15:06:11;20.00;99.90
20670;DHT22;10494;50.868;4.180;2023-09-19T15:08:41;20.00;99.90
20670;DHT22;10494;50.868;4.180;2023-09-19T15:11:08;20.00;99.90
20670;DHT22;10494;50.868;4.180;2023-09-19T15:13:36;19.90;99.90
20670;DHT22;10494;50.868;4.180;2023-09-19T15:16:03;19.90;99.90
20670;DHT22;10494;50.868;4.180;2023-09-19T15:18:29;20.00;99.90
20670;DHT22;10494;50.868;4.180;2023-09-19T15:20:56;20.00;99.90
20670;DHT22;10494;50.868;4.180;2023-09-19T15:23:22;19.90;99.90
20670;DHT22;10494;50.868;4.180;2023-09-19T15:25:49;19.80;99.90
20670;DHT22;10494;50.868;4.180;2023-09-19T15:28:14;19.80;99.90
20670;DHT22;10494;50.868;4.180;2023-09-19T15:30:40;19.70;99.90
20670;DHT22;10494;50.868;4.180;2023-09-19T15:33:06;19.60;99.90
20670;DHT22;10494;50.868;4.180;2023-09-19T15:35:31;19.60;99.90
20670;DHT22;10494;50.868;4.180;2023-09-19T15:37:57;19.70;99.90
20670;DHT22;10494;50.868;4.180;2023-09-19T15:40:25;19.70;99.90
20670;DHT22;10494;50.868;4.180;2023-09-19T15:42:51;19.80;99.90
20670;DHT22;10494;50.868;4.180;2023-09-19T15:45:16;19.80;99.90
20670;DHT22;10494;50.868;4.180;2023-09-19T15:47:44;19.60;99.90
20670;DHT22;10494;50.868;4.180;2023-09-19T15:50:10;19.60;99.90
20670;DHT22;10494;50.868;4.180;2023-09-19T15:52:38;19.60;99.90
20670;DHT22;10494;50.868;4.180;2023-09-19T15:55:05;19.60;99.90
20670;DHT22;10494;50.868;4.180;2023-09-19T15:57:32;19.60;99.90
20670;DHT22;10494;50.868;4.180;2023-09-19T15:59:59;19.60;99.90
20670;DHT22;10494;50.868;4.180;2023-09-19T16:02:25;19.60;99.90
20670;DHT22;10494;50.868;4.180;2023-09-19T16:04:54;19.60;99.90
20670;DHT22;10494;50.868;4.180;2023-09-19T16:07:19;19.60;99.90
20670;DHT22;10494;50.868;4.180;2023-09-19T16:09:46;19.60;99.90
20670;DHT22;10494;50.868;4.180;2023-09-19T16:12:13;19.60;99.90
20670;DHT22;10494;50.868;4.180;2023-09-19T16:14:41;19.70;99.90
20670;DHT22;10494;50.868;4.180;2023-09-19T16:17:19;19.70;99.90
20670;DHT22;10494;50.868;4.180;2023-09-19T16:19:45;19.70;99.90
20670;DHT22;10494;50.868;4.180;2023-09-19T16:22:11;19.70;99.90
20670;DHT22;10494;50.868;4.180;2023-09-19T16:24:37;19.70;99.90
20670;DHT22;10494;50.868;4.180;2023-09-19T16:27:03;19.70;99.90